Terminal Aerodrome Forecast
Issued by NWS

Current Version | Previous Version | Text Only | Print | Product List | Glossary On
Versions: 1 2 3 4 5 6 7 8 9 10 11 12 13 14 15 16 17 18 19 20 21 22 23 24
000
FTUS44 KOUN 022328
TAFCSM
TAF
KCSM 022328Z 0300/0324 20010KT P6SM BKN060 BKN120 PROB30 0309/0312
      3SM TSRA OVC040CB
     FM031600 01007KT P6SM SCT050=

USA.gov is the U.S. government's official web portal to all federal, state and local government web resources and services.